Time;durP1;ratioP1;P1;durP2;ratioP2;P2;SDS_P1;SDS_P2;PMS_P1;PMS_P2;Temp;Humidity;BMP_temperature;BMP_pressure;BME280_temperature;BME280_humidity;BME280_pressure;Samples;Min_cycle;Max_cycle;Signal;HPM_P1;HPM_P2
2022/06/02 00:01:56;;;;;;;2.90;2.20;;;20.10;99.90;;;;;;5091272;28;20567;-62
2022/06/02 00:04:31;;;;;;;2.43;2.23;;;20.10;99.90;;;;;;5091318;28;20208;-61
2022/06/02 00:07:06;;;;;;;3.43;2.23;;;20.10;99.90;;;;;;5091425;28;20220;-61
2022/06/02 00:09:47;;;;;;;5.37;4.20;;;20.10;99.90;;;;;;5091743;28;20233;-59
2022/06/02 00:12:23;;;;;;;10.63;7.07;;;20.10;99.90;;;;;;5091260;28;20239;-60
2022/06/02 00:15:00;;;;;;;6.47;4.83;;;20.10;99.90;;;;;;5094280;28;20213;-59
2022/06/02 00:17:34;;;;;;;4.93;3.03;;;20.10;99.90;;;;;;5095705;28;20690;-60
2022/06/02 00:20:08;;;;;;;3.03;2.40;;;20.00;99.90;;;;;;5095169;28;20276;-61
2022/06/02 00:22:42;;;;;;;2.60;2.37;;;20.00;99.90;;;;;;5084796;28;20210;-60
2022/06/02 00:25:13;;;;;;;2.77;2.17;;;20.00;99.90;;;;;;5093765;28;20242;-60
2022/06/02 00:27:46;;;;;;;3.73;2.13;;;20.00;99.90;;;;;;5095258;28;20667;-60
2022/06/02 00:30:20;;;;;;;2.37;2.17;;;19.90;99.90;;;;;;5093802;28;20204;-61
2022/06/02 00:32:57;;;;;;;2.77;2.20;;;19.90;99.90;;;;;;5093348;28;20196;-60
2022/06/02 00:35:32;;;;;;;2.43;2.07;;;19.90;99.90;;;;;;5093685;28;20592;-60
2022/06/02 00:38:04;;;;;;;2.40;2.10;;;19.90;99.90;;;;;;5095075;28;20192;-60
2022/06/02 00:40:32;;;;;;;2.10;1.90;;;19.90;99.90;;;;;;5092747;28;20203;-61
2022/06/02 00:43:16;;;;;;;4.23;2.10;;;19.90;99.90;;;;;;5095067;28;20556;-61
2022/06/02 00:45:45;;;;;;;2.67;2.20;;;19.90;99.90;;;;;;5094964;28;20595;-61
2022/06/02 00:48:18;;;;;;;4.23;2.40;;;19.90;99.90;;;;;;5095220;28;20227;-60
2022/06/02 00:50:53;;;;;;;4.30;2.50;;;19.90;99.90;;;;;;5092753;28;20284;-59
2022/06/02 00:53:34;;;;;;;8.27;3.30;;;19.80;99.90;;;;;;5095038;28;20654;-62
2022/06/02 00:59:05;;;;;;;4.47;3.17;;;19.30;99.90;;;;;;5094499;28;20275;-60
2022/06/02 01:01:34;;;;;;;4.53;3.60;;;19.00;99.90;;;;;;5080247;28;20649;-59
2022/06/02 01:04:04;;;;;;;5.77;3.60;;;18.90;99.90;;;;;;5074381;28;20229;-60
2022/06/02 01:06:50;;;;;;;6.07;4.27;;;18.80;99.90;;;;;;5074248;28;20529;-61
2022/06/02 01:09:53;;;;;;;4.83;4.03;;;18.70;99.90;;;;;;5074515;28;20322;-60
2022/06/02 01:12:47;;;;;;;7.13;4.17;;;18.70;99.90;;;;;;5093429;28;20717;-60
2022/06/02 01:15:27;;;;;;;6.37;4.77;;;18.70;99.90;;;;;;5094141;28;20195;-60
2022/06/02 01:18:06;;;;;;;6.60;4.17;;;18.60;99.90;;;;;;5089785;28;20196;-59
2022/06/02 01:20:49;;;;;;;5.37;4.10;;;18.60;99.90;;;;;;5094218;28;20197;-60
2022/06/02 01:23:53;;;;;;;7.17;4.30;;;18.60;99.90;;;;;;5094093;28;20196;-60
2022/06/02 01:26:49;;;;;;;7.17;4.63;;;18.50;99.90;;;;;;5093986;28;20217;-59
2022/06/02 01:29:38;;;;;;;5.57;4.60;;;18.50;99.90;;;;;;5074152;28;20612;-60
2022/06/02 01:32:10;;;;;;;6.67;5.23;;;18.40;99.90;;;;;;5074090;28;20269;-60
2022/06/02 01:34:49;;;;;;;6.27;4.33;;;18.30;99.90;;;;;;5073820;28;20192;-60
2022/06/02 01:37:24;;;;;;;7.50;4.83;;;18.20;99.90;;;;;;5079128;28;20198;-61
2022/06/02 01:40:06;;;;;;;5.50;4.60;;;18.20;99.90;;;;;;5093563;28;20205;-58
2022/06/02 01:42:47;;;;;;;7.90;4.93;;;18.10;99.90;;;;;;5093965;28;20268;-60
2022/06/02 01:45:19;;;;;;;6.73;4.50;;;18.10;99.90;;;;;;5093661;28;20208;-60
2022/06/02 01:47:53;;;;;;;7.07;4.90;;;18.10;99.90;;;;;;5084534;28;20209;-61
2022/06/02 01:50:32;;;;;;;7.23;5.17;;;18.10;99.90;;;;;;5085238;28;20263;-60
2022/06/02 01:53:12;;;;;;;6.57;4.60;;;18.10;99.90;;;;;;5093932;28;20602;-60
2022/06/02 01:56:14;;;;;;;7.10;5.13;;;18.10;99.90;;;;;;5093501;28;20194;-61
2022/06/02 01:58:59;;;;;;;7.00;4.43;;;18.10;99.90;;;;;;5093615;28;20193;-60
2022/06/02 02:01:38;;;;;;;6.23;4.67;;;18.20;99.90;;;;;;5073108;28;20207;-60
2022/06/02 02:04:28;;;;;;;6.03;5.00;;;18.10;99.90;;;;;;5073211;28;20220;-60
2022/06/02 02:07:03;;;;;;;7.13;5.07;;;18.10;99.90;;;;;;5072953;28;20199;-60
2022/06/02 02:09:40;;;;;;;6.17;4.83;;;18.10;99.90;;;;;;5075857;28;20629;-59
2022/06/02 02:12:13;;;;;;;7.13;4.67;;;18.10;99.90;;;;;;5093199;28;20264;-59
2022/06/02 02:15:02;;;;;;;6.40;4.53;;;18.10;99.90;;;;;;5091482;28;20561;-61
2022/06/02 02:18:04;;;;;;;5.80;3.93;;;18.20;99.90;;;;;;5092763;28;20210;-61
2022/06/02 02:20:42;;;;;;;7.17;4.43;;;18.30;99.90;;;;;;5087678;28;20216;-61
2022/06/02 02:23:19;;;;;;;6.37;4.53;;;18.40;99.90;;;;;;5073698;28;20203;-61
2022/06/02 02:25:53;;;;;;;5.47;4.40;;;18.50;99.90;;;;;;5073602;28;20222;-61
2022/06/02 02:28:31;;;;;;;4.80;3.93;;;18.60;99.90;;;;;;5072737;28;20196;-61
2022/06/02 02:31:11;;;;;;;8.73;4.33;;;18.60;99.90;;;;;;5072897;28;20189;-60
2022/06/02 02:33:46;;;;;;;5.70;3.90;;;18.70;99.90;;;;;;5072613;28;20218;-60
2022/06/02 02:36:24;;;;;;;8.03;5.10;;;18.80;99.90;;;;;;5081673;28;20558;-59
2022/06/02 02:39:00;;;;;;;5.70;4.17;;;18.90;99.90;;;;;;5092672;28;20191;-60
2022/06/02 02:41:34;;;;;;;6.47;4.57;;;19.00;99.90;;;;;;5092368;28;20184;-59
2022/06/02 02:44:06;;;;;;;6.27;4.40;;;19.10;99.90;;;;;;5092448;28;20216;-59
2022/06/02 02:46:37;;;;;;;8.87;4.70;;;19.10;99.90;;;;;;5080543;28;20196;-60
2022/06/02 02:49:13;;;;;;;7.40;4.50;;;19.10;99.90;;;;;;5072696;28;20192;-60
2022/06/02 02:51:50;;;;;;;6.07;4.83;;;19.10;99.90;;;;;;5072485;28;20204;-60
2022/06/02 02:54:22;;;;;;;15.07;4.80;;;19.10;99.90;;;;;;5072060;28;20193;-60
2022/06/02 02:56:57;;;;;;;6.30;4.77;;;19.10;99.90;;;;;;5081476;28;20191;-59
2022/06/02 02:59:31;;;;;;;7.73;4.90;;;19.10;99.90;;;;;;5092062;28;20192;-62
2022/06/02 03:02:06;;;;;;;5.63;4.73;;;19.10;99.90;;;;;;5092664;28;20552;-60
2022/06/02 03:04:46;;;;;;;5.90;4.50;;;19.10;99.90;;;;;;5092308;28;20226;-60
2022/06/02 03:07:15;;;;;;;6.73;5.10;;;19.00;99.90;;;;;;5080059;28;20279;-60
2022/06/02 03:09:45;;;;;;;7.53;4.63;;;19.00;99.90;;;;;;5072099;28;20620;-61
2022/06/02 03:12:25;;;;;;;6.53;4.67;;;18.90;99.90;;;;;;5071657;28;20246;-61
2022/06/02 03:15:11;;;;;;;8.50;4.90;;;19.00;99.90;;;;;;5072173;28;20201;-61
2022/06/02 03:18:14;;;;;;;7.43;5.13;;;19.00;99.90;;;;;;5086418;28;20206;-60
2022/06/02 03:20:51;;;;;;;8.60;5.20;;;19.00;99.90;;;;;;5076634;28;20216;-59
2022/06/02 03:23:36;;;;;;;8.03;4.60;;;19.00;99.90;;;;;;5091917;28;20542;-60
2022/06/02 03:26:09;;;;;;;8.30;5.20;;;19.00;99.90;;;;;;5091951;28;20187;-62
2022/06/02 03:28:42;;;;;;;8.93;5.63;;;19.00;99.90;;;;;;5076699;28;20203;-59
2022/06/02 03:31:14;;;;;;;7.50;5.33;;;19.10;99.90;;;;;;5071676;28;20188;-60
2022/06/02 03:34:03;;;;;;;7.13;4.87;;;19.10;99.90;;;;;;5071820;28;20193;-61
2022/06/02 03:36:51;;;;;;;8.10;5.10;;;19.10;99.90;;;;;;5071358;28;20208;-61
2022/06/02 03:39:33;;;;;;;8.23;5.20;;;19.20;99.90;;;;;;5071210;28;20272;-60
2022/06/02 03:42:13;;;;;;;8.10;4.73;;;19.20;99.90;;;;;;5071699;28;20218;-61
2022/06/02 03:44:52;;;;;;;5.97;4.47;;;19.30;99.90;;;;;;5071689;28;20238;-60
2022/06/02 03:47:46;;;;;;;7.53;4.70;;;19.30;99.90;;;;;;5070902;28;20200;-60
2022/06/02 03:50:34;;;;;;;8.17;5.43;;;19.30;99.90;;;;;;5071542;28;20193;-61
2022/06/02 03:53:17;;;;;;;6.40;5.00;;;19.40;99.90;;;;;;5071570;28;20216;-60
2022/06/02 03:55:55;;;;;;;9.80;5.00;;;19.50;99.90;;;;;;5071666;28;20296;-59
2022/06/02 03:58:43;;;;;;;7.87;5.90;;;19.50;99.90;;;;;;5070723;28;20190;-59
2022/06/02 04:01:13;;;;;;;7.53;5.37;;;19.50;99.90;;;;;;5071230;28;20195;-60
2022/06/02 04:04:04;;;;;;;8.17;5.90;;;19.60;99.90;;;;;;5071089;28;20215;-61
2022/06/02 04:06:41;;;;;;;8.13;5.80;;;19.60;99.90;;;;;;5071180;28;20195;-61
2022/06/02 04:09:25;;;;;;;7.43;5.60;;;19.60;99.90;;;;;;5070754;28;20192;-61
2022/06/02 04:15:15;;;;;;;9.17;5.43;;;19.80;99.90;;;;;;5071326;28;20318;-61
2022/06/02 04:17:50;;;;;;;7.63;5.03;;;19.80;99.90;;;;;;5071553;28;20196;-60
2022/06/02 04:20:37;;;;;;;5.30;4.53;;;19.80;99.90;;;;;;5071199;28;20188;-63
2022/06/02 04:23:18;;;;;;;8.67;4.80;;;19.90;99.90;;;;;;5071287;28;20190;-61
2022/06/02 04:25:54;;;;;;;10.87;5.07;;;20.00;99.90;;;;;;5091521;28;20578;-63
2022/06/02 04:28:35;;;;;;;8.37;5.00;;;20.10;99.90;;;;;;5091386;28;20280;-61
2022/06/02 04:31:12;;;;;;;7.60;4.70;;;20.10;99.90;;;;;;5091604;28;20184;-62
2022/06/02 04:33:47;;;;;;;7.33;5.03;;;20.10;99.90;;;;;;5087007;28;20189;-61
2022/06/02 04:36:22;;;;;;;5.40;4.57;;;20.20;99.90;;;;;;5071119;28;20191;-62
2022/06/02 04:38:57;;;;;;;10.37;6.90;;;20.20;99.90;;;;;;5071006;28;20200;-63
2022/06/02 04:41:31;;;;;;;9.27;5.70;;;20.30;99.90;;;;;;5073826;28;20188;-62
2022/06/02 04:44:09;;;;;;;6.67;4.80;;;20.40;99.90;;;;;;5091263;28;20624;-61
2022/06/02 04:46:48;;;;;;;11.67;7.27;;;20.40;99.90;;;;;;5091194;28;20624;-61
2022/06/02 04:49:24;;;;;;;8.27;5.33;;;20.40;99.90;;;;;;5070401;28;20194;-60
2022/06/02 04:51:57;;;;;;;9.07;5.10;;;20.40;99.90;;;;;;5070599;28;20642;-61
2022/06/02 04:54:36;;;;;;;7.40;5.33;;;20.50;99.90;;;;;;5070714;28;20193;-61
2022/06/02 04:57:10;;;;;;;15.90;12.47;;;20.60;99.90;;;;;;5070262;28;20283;-59
2022/06/02 04:59:50;;;;;;;8.53;5.33;;;20.70;99.90;;;;;;5071683;28;20189;-60
2022/06/02 05:02:23;;;;;;;6.83;4.40;;;20.70;99.90;;;;;;5073835;28;20550;-61
2022/06/02 05:04:59;;;;;;;12.17;5.63;;;20.80;99.90;;;;;;5074459;28;20231;-61
2022/06/02 05:07:36;;;;;;;7.07;5.00;;;20.90;99.90;;;;;;5074155;28;20188;-60
2022/06/02 05:10:12;;;;;;;10.57;4.10;;;21.00;99.90;;;;;;5072511;28;20188;-61
2022/06/02 05:12:52;;;;;;;7.43;4.33;;;21.10;99.90;;;;;;5078146;28;20563;-60
2022/06/02 05:15:40;;;;;;;7.13;4.23;;;21.10;99.90;;;;;;5073126;28;20549;-61
2022/06/02 05:18:27;;;;;;;9.13;4.10;;;21.10;99.90;;;;;;5078834;28;20245;-59
2022/06/02 05:21:13;;;;;;;5.90;4.20;;;21.20;99.90;;;;;;5073326;28;20208;-60
2022/06/02 05:24:09;;;;;;;7.60;4.80;;;21.20;99.90;;;;;;5082397;28;20698;-61
2022/06/02 05:27:37;;;;;;;6.07;4.73;;;21.20;99.90;;;;;;5081652;28;20220;-60
2022/06/02 05:30:18;;;;;;;8.03;4.90;;;21.20;99.90;;;;;;5002393;28;20199;-60
2022/06/02 05:33:16;;;;;;;8.43;4.93;;;21.20;99.90;;;;;;4993546;28;20207;-60
2022/06/02 05:36:11;;;;;;;8.20;5.13;;;21.30;99.90;;;;;;4991021;28;20210;-59
2022/06/02 05:38:55;;;;;;;6.90;4.73;;;21.40;99.90;;;;;;4981738;28;20210;-60
2022/06/02 05:41:40;;;;;;;8.80;5.00;;;21.40;99.90;;;;;;4991817;28;20203;-61
2022/06/02 05:44:16;;;;;;;8.70;4.70;;;21.50;99.90;;;;;;4991828;28;20294;-62
2022/06/02 05:47:05;;;;;;;7.73;5.27;;;21.60;99.90;;;;;;4997202;28;20211;-62
2022/06/02 05:49:42;;;;;;;7.33;5.00;;;21.70;99.90;;;;;;5011517;28;20198;-59
2022/06/02 05:52:18;;;;;;;6.90;5.00;;;21.90;99.90;;;;;;5011192;28;20191;-61
2022/06/02 05:54:53;;;;;;;6.13;4.90;;;22.10;99.90;;;;;;5011405;28;20265;-61
2022/06/02 05:57:36;;;;;;;7.57;5.03;;;22.20;99.90;;;;;;5000541;28;20206;-61
2022/06/02 06:00:13;;;;;;;7.23;4.80;;;22.30;99.90;;;;;;4999673;28;20200;-61
2022/06/02 06:03:15;;;;;;;8.30;5.23;;;22.50;99.90;;;;;;5073617;28;20189;-61
2022/06/02 06:05:47;;;;;;;8.27;5.03;;;22.50;99.90;;;;;;5073277;28;20209;-60
2022/06/02 06:08:29;;;;;;;7.47;5.13;;;22.60;99.90;;;;;;5090156;28;20218;-61
2022/06/02 06:11:09;;;;;;;13.07;5.37;;;22.60;99.90;;;;;;5092343;28;20273;-60
2022/06/02 06:14:06;;;;;;;9.70;5.30;;;22.70;99.90;;;;;;5093202;28;20336;-60
2022/06/02 06:16:39;;;;;;;8.43;5.00;;;22.70;99.90;;;;;;5093637;28;20200;-61
2022/06/02 06:19:25;;;;;;;7.00;4.80;;;22.80;99.90;;;;;;5075024;28;20191;-61
2022/06/02 06:22:06;;;;;;;8.80;4.83;;;22.80;99.90;;;;;;5073022;28;20197;-60
2022/06/02 06:25:12;;;;;;;11.87;5.57;;;22.80;99.90;;;;;;5073248;28;20194;-60
2022/06/02 06:27:50;;;;;;;7.03;4.90;;;22.90;99.90;;;;;;5062296;28;20202;-61
2022/06/02 06:30:27;;;;;;;7.50;5.40;;;22.90;99.90;;;;;;5072530;28;20628;-60
2022/06/02 06:33:10;;;;;;;9.80;5.90;;;23.00;99.90;;;;;;5079667;28;20202;-60
2022/06/02 06:35:50;;;;;;;8.40;5.63;;;23.00;99.90;;;;;;5072753;28;20200;-61
2022/06/02 06:38:45;;;;;;;5.83;3.90;;;23.10;99.90;;;;;;5072277;28;20700;-62
2022/06/02 06:41:24;;;;;;;6.03;3.53;;;23.20;99.90;;;;;;5072552;28;20247;-61
2022/06/02 06:44:03;;;;;;;3.80;3.30;;;23.20;99.90;;;;;;5071689;28;20192;-60
2022/06/02 06:46:37;;;;;;;6.70;3.13;;;23.20;99.90;;;;;;5077100;28;20680;-62
2022/06/02 06:49:12;;;;;;;4.20;2.93;;;23.20;99.90;;;;;;5092580;28;20190;-61
2022/06/02 06:51:46;;;;;;;3.37;2.80;;;23.20;99.90;;;;;;5082769;28;20562;-62
2022/06/02 06:54:27;;;;;;;4.30;2.80;;;23.30;99.90;;;;;;5072708;28;20198;-61
2022/06/02 06:56:59;;;;;;;6.40;3.30;;;23.30;99.90;;;;;;5072575;28;20194;-62
2022/06/02 06:59:37;;;;;;;3.83;2.73;;;23.40;99.90;;;;;;5074381;28;20194;-60
2022/06/02 07:02:16;;;;;;;4.10;2.70;;;23.30;99.90;;;;;;5078118;28;20317;-61
2022/06/02 07:04:51;;;;;;;3.93;2.50;;;23.30;99.90;;;;;;5072557;28;20226;-60
2022/06/02 07:07:26;;;;;;;4.50;2.80;;;23.40;99.90;;;;;;5072714;28;20186;-61
2022/06/02 07:10:01;;;;;;;3.53;2.47;;;23.50;99.90;;;;;;5087042;28;20594;-60
2022/06/02 07:12:54;;;;;;;3.53;2.57;;;23.50;99.90;;;;;;5071739;28;20252;-61
2022/06/02 07:15:41;;;;;;;7.00;3.30;;;23.60;99.90;;;;;;5072000;28;20644;-61
2022/06/02 07:18:16;;;;;;;4.73;2.80;;;23.60;99.90;;;;;;5073990;28;20188;-60
2022/06/02 07:20:51;;;;;;;3.83;2.77;;;23.70;99.90;;;;;;5070604;28;20189;-63
2022/06/02 07:23:28;;;;;;;3.40;2.77;;;23.80;99.90;;;;;;5071186;28;20633;-62
2022/06/02 07:26:07;;;;;;;5.47;2.53;;;23.90;99.90;;;;;;5075990;28;20226;-62
2022/06/02 07:28:43;;;;;;;4.07;2.90;;;23.90;99.90;;;;;;5077115;28;20229;-62
2022/06/02 07:31:30;;;;;;;5.63;2.73;;;24.00;99.90;;;;;;5073206;28;20211;-62
2022/06/02 07:34:15;;;;;;;4.03;2.83;;;24.10;99.90;;;;;;5074710;28;20201;-61
2022/06/02 07:37:06;;;;;;;3.57;2.30;;;24.20;99.90;;;;;;5091510;28;20194;-65
2022/06/02 07:40:14;;;;;;;5.50;2.67;;;24.30;99.90;;;;;;5091665;28;20209;-64
2022/06/02 07:43:16;;;;;;;3.40;2.37;;;24.40;99.90;;;;;;5072418;28;20196;-61
2022/06/02 07:45:55;;;;;;;4.57;3.00;;;24.50;99.90;;;;;;5086318;28;20590;-62
2022/06/02 07:48:39;;;;;;;5.73;3.77;;;24.60;99.90;;;;;;5076852;28;20196;-61
2022/06/02 07:51:17;;;;;;;3.20;2.90;;;24.60;99.90;;;;;;5075878;28;20211;-61
2022/06/02 07:53:57;;;;;;;5.50;2.57;;;24.60;99.90;;;;;;5071281;28;20273;-60
2022/06/02 07:56:32;;;;;;;5.90;1.90;;;24.70;99.90;;;;;;5071061;28;20230;-60
2022/06/02 07:59:09;;;;;;;3.27;1.90;;;24.70;99.90;;;;;;5070833;28;20192;-64
2022/06/02 08:02:10;;;;;;;2.60;2.13;;;24.70;99.90;;;;;;5070908;28;20198;-60
2022/06/02 08:04:46;;;;;;;5.70;2.47;;;24.80;99.90;;;;;;5071174;28;20785;-61
2022/06/02 08:07:22;;;;;;;3.87;2.10;;;24.80;99.90;;;;;;5071302;28;20669;-62
2022/06/02 08:10:03;;;;;;;3.90;2.27;;;24.80;99.90;;;;;;5071160;28;20204;-63
2022/06/02 08:12:39;;;;;;;3.93;2.30;;;24.90;99.90;;;;;;5070648;28;20335;-61
2022/06/02 08:15:22;;;;;;;4.03;2.70;;;24.90;99.90;;;;;;5070973;28;20204;-62
2022/06/02 08:17:56;;;;;;;3.50;2.43;;;25.00;99.90;;;;;;5090251;28;20641;-61
2022/06/02 08:20:43;;;;;;;4.03;2.57;;;25.00;99.90;;;;;;5084878;28;20195;-61
2022/06/02 08:23:16;;;;;;;3.80;2.60;;;25.00;99.90;;;;;;5071307;28;20284;-61
2022/06/02 08:25:56;;;;;;;3.30;2.40;;;25.10;99.90;;;;;;5069790;28;20230;-61
2022/06/02 08:28:41;;;;;;;3.27;2.50;;;25.10;99.90;;;;;;5070909;28;20650;-62
2022/06/02 08:31:19;;;;;;;4.30;2.20;;;25.10;99.90;;;;;;5070807;28;20192;-61
2022/06/02 08:33:55;;;;;;;3.60;2.67;;;25.20;99.90;;;;;;5075727;28;20209;-63
2022/06/02 08:36:27;;;;;;;3.70;2.40;;;25.30;99.90;;;;;;5079575;28;20200;-61
2022/06/02 08:39:10;;;;;;;4.77;2.60;;;25.40;99.90;;;;;;5090315;28;20223;-61
2022/06/02 08:42:11;;;;;;;3.30;2.20;;;25.40;99.90;;;;;;5074473;28;20190;-63
2022/06/02 08:45:03;;;;;;;4.38;2.67;;;25.50;99.90;;;;;;5076657;28;20195;-62
2022/06/02 08:48:02;;;;;;;3.47;2.77;;;25.50;99.90;;;;;;5042452;28;20584;-62
2022/06/02 08:50:54;;;;;;;4.87;2.50;;;25.50;99.90;;;;;;5074652;28;20677;-61
2022/06/02 08:53:58;;;;;;;3.67;2.63;;;25.60;99.90;;;;;;5074832;28;20198;-63
2022/06/02 08:56:47;;;;;;;4.95;2.58;;;25.70;99.90;;;;;;5075750;28;20209;-61
2022/06/02 08:59:49;;;;;;;5.07;3.20;;;25.80;99.90;;;;;;5074712;28;20189;-62
2022/06/02 09:02:55;;;;;;;7.37;2.57;;;25.90;99.90;;;;;;5074479;28;20216;-60
2022/06/02 09:05:50;;;;;;;4.87;2.97;;;25.90;99.90;;;;;;5077236;28;20188;-63
2022/06/02 09:08:33;;;;;;;3.53;2.63;;;25.90;99.90;;;;;;5074141;28;20199;-61
2022/06/02 09:11:25;;;;;;;3.90;2.90;;;25.90;99.90;;;;;;5076198;28;20192;-64
2022/06/02 09:14:29;;;;;;;3.33;2.50;;;25.90;99.90;;;;;;5046030;28;20200;-61
2022/06/02 09:16:59;;;;;;;4.32;2.90;;;26.00;99.90;;;;;;5024228;28;20299;-62
2022/06/02 09:19:38;;;;;;;5.05;3.20;;;26.00;99.90;;;;;;5034553;28;20199;-61
2022/06/02 09:22:32;;;;;;;6.97;3.05;;;26.00;99.90;;;;;;5034652;28;20196;-61
2022/06/02 09:25:07;;;;;;;4.72;3.10;;;26.00;99.90;;;;;;5034108;28;20231;-61
2022/06/02 09:28:06;;;;;;;4.15;3.10;;;26.10;99.90;;;;;;5040975;28;20620;-61
2022/06/02 09:30:46;;;;;;;5.70;2.80;;;26.10;99.90;;;;;;5045933;28;20278;-64
2022/06/02 09:33:43;;;;;;;25.35;4.35;;;26.10;99.90;;;;;;5033776;28;20203;-60
2022/06/02 09:36:39;;;;;;;6.47;3.25;;;26.10;99.90;;;;;;5027976;28;20215;-61
2022/06/02 09:39:24;;;;;;;5.82;3.20;;;26.30;99.90;;;;;;5053762;28;20234;-61
2022/06/02 09:42:08;;;;;;;4.28;3.00;;;26.40;99.90;;;;;;5050054;28;20201;-63
2022/06/02 09:44:51;;;;;;;5.70;3.50;;;26.40;99.90;;;;;;5033433;28;20559;-61
2022/06/02 09:47:52;;;;;;;5.38;3.50;;;26.50;99.90;;;;;;5032555;28;20212;-62
2022/06/02 09:50:53;;;;;;;4.18;3.20;;;26.50;99.90;;;;;;5033556;28;20200;-60
2022/06/02 09:53:39;;;;;;;6.03;3.65;;;26.50;99.90;;;;;;5022081;28;20209;-62
2022/06/02 09:56:25;;;;;;;5.28;3.50;;;26.50;99.90;;;;;;5033549;28;20215;-60
2022/06/02 09:59:00;;;;;;;6.35;4.05;;;26.50;99.90;;;;;;5033465;28;20628;-61
2022/06/02 10:01:41;;;;;;;6.63;4.13;;;26.60;99.90;;;;;;5033149;28;20202;-61
2022/06/02 10:04:36;;;;;;;4.95;3.78;;;26.70;99.90;;;;;;5033333;28;20555;-61
2022/06/02 10:07:24;;;;;;;5.63;3.50;;;26.70;99.90;;;;;;5033212;28;20256;-62
2022/06/02 10:10:18;;;;;;;4.60;3.17;;;26.80;99.90;;;;;;5033088;28;20197;-61
2022/06/02 10:13:03;;;;;;;4.97;3.53;;;26.90;99.90;;;;;;5056608;28;20239;-62
2022/06/02 10:15:55;;;;;;;6.07;4.00;;;26.90;99.90;;;;;;5072701;28;20215;-64
2022/06/02 10:18:48;;;;;;;5.13;3.95;;;26.90;99.90;;;;;;5083496;28;20673;-62
2022/06/02 10:21:26;;;;;;;9.45;4.45;;;26.90;99.90;;;;;;5093234;28;20203;-61
2022/06/02 10:24:36;;;;;;;6.47;4.60;;;26.90;99.90;;;;;;5085066;28;20194;-63
2022/06/02 10:27:31;;;;;;;5.35;4.22;;;26.90;99.90;;;;;;5072360;28;20709;-61
2022/06/02 10:30:27;;;;;;;13.80;5.68;;;27.00;99.90;;;;;;5072799;28;20523;-62
2022/06/02 10:33:37;;;;;;;7.18;4.40;;;27.10;99.90;;;;;;5072153;28;20199;-62
2022/06/02 10:36:28;;;;;;;4.65;4.07;;;27.10;99.90;;;;;;5072720;28;20220;-62
2022/06/02 10:39:07;;;;;;;8.18;4.93;;;27.10;99.90;;;;;;5072333;28;20677;-61
2022/06/02 10:41:51;;;;;;;6.60;4.88;;;27.20;99.90;;;;;;5072438;28;20201;-62
2022/06/02 10:44:20;;;;;;;7.88;4.82;;;27.20;99.90;;;;;;5072279;28;20216;-61
2022/06/02 10:47:24;;;;;;;5.20;4.13;;;27.20;99.90;;;;;;5072836;28;20301;-62
2022/06/02 10:50:01;;;;;;;24.48;4.70;;;27.40;99.90;;;;;;5072265;28;20214;-62
2022/06/02 10:52:59;;;;;;;5.93;4.55;;;27.60;99.90;;;;;;5071630;28;20222;-62
2022/06/02 10:55:53;;;;;;;5.15;3.70;;;27.60;99.90;;;;;;5072140;28;20199;-63
2022/06/02 10:58:53;;;;;;;5.50;3.60;;;27.70;99.90;;;;;;5071043;28;20263;-62
2022/06/02 11:01:54;;;;;;;5.07;3.80;;;27.80;99.90;;;;;;5050953;28;20569;-63
2022/06/02 11:05:19;;;;;;;6.65;3.58;;;27.90;99.90;;;;;;5071949;28;20586;-61
2022/06/02 11:08:34;;;;;;;5.20;3.50;;;28.10;99.90;;;;;;5071619;28;20234;-62
2022/06/02 11:11:38;;;;;;;4.55;3.70;;;28.30;99.90;;;;;;5071729;28;20252;-62
2022/06/02 11:14:37;;;;;;;5.50;3.47;;;28.30;99.90;;;;;;5071937;28;20207;-61
2022/06/02 11:17:39;;;;;;;6.20;3.63;;;28.40;99.90;;;;;;5071927;28;20653;-62
2022/06/02 11:20:49;;;;;;;4.43;3.30;;;28.50;99.90;;;;;;5045722;28;20214;-61
2022/06/02 11:23:45;;;;;;;4.50;3.38;;;28.60;99.90;;;;;;5071717;28;20661;-61
2022/06/02 11:26:40;;;;;;;4.05;3.22;;;28.60;99.90;;;;;;5071546;28;20200;-62
2022/06/02 11:29:28;;;;;;;9.50;4.15;;;28.60;99.90;;;;;;5080064;28;20203;-62
2022/06/02 11:32:11;;;;;;;5.00;3.22;;;28.60;99.90;;;;;;5090619;28;20210;-62
2022/06/02 11:35:19;;;;;;;4.53;3.55;;;28.50;99.90;;;;;;5089858;28;20191;-62
2022/06/02 11:38:16;;;;;;;5.53;2.85;;;28.40;99.90;;;;;;5081724;28;20532;-62
2022/06/02 11:41:07;;;;;;;3.67;3.00;;;28.40;99.90;;;;;;5062330;28;20559;-62
2022/06/02 11:43:47;;;;;;;4.75;3.00;;;28.50;99.90;;;;;;5066612;28;20207;-62
2022/06/02 11:46:49;;;;;;;4.13;2.72;;;28.60;99.90;;;;;;5082562;28;20210;-64
2022/06/02 11:49:46;;;;;;;5.15;3.28;;;28.70;99.90;;;;;;5077557;28;20641;-63
2022/06/02 11:52:32;;;;;;;5.97;3.30;;;28.70;99.90;;;;;;5085878;28;20223;-62
2022/06/02 11:55:17;;;;;;;9.75;3.47;;;28.60;99.90;;;;;;5077277;28;20199;-66
2022/06/02 11:57:58;;;;;;;5.00;3.30;;;28.50;99.90;;;;;;5076834;28;20188;-62
2022/06/02 12:00:56;;;;;;;4.32;3.45;;;28.40;99.90;;;;;;5091463;28;20269;-64
2022/06/02 12:04:02;;;;;;;5.45;3.17;;;28.40;99.90;;;;;;5091739;28;20195;-62
2022/06/02 12:06:57;;;;;;;4.85;3.95;;;28.30;99.90;;;;;;5078879;28;20658;-62
2022/06/02 12:09:51;;;;;;;5.75;3.70;;;28.30;99.90;;;;;;5071027;28;20205;-65
2022/06/02 12:12:31;;;;;;;7.45;4.25;;;28.30;99.90;;;;;;5073975;28;20233;-63
2022/06/02 12:15:29;;;;;;;5.35;3.70;;;28.30;99.90;;;;;;5070928;28;20192;-62
2022/06/02 12:18:20;;;;;;;8.38;4.20;;;28.40;99.90;;;;;;5091752;28;20641;-63
2022/06/02 12:21:14;;;;;;;6.80;4.25;;;28.40;99.90;;;;;;5091508;28;20231;-62
2022/06/02 12:24:05;;;;;;;5.80;3.83;;;28.30;99.90;;;;;;5091726;28;20209;-62
2022/06/02 12:26:45;;;;;;;4.38;3.10;;;28.30;99.90;;;;;;5088094;28;20218;-62
2022/06/02 12:29:25;;;;;;;5.15;3.10;;;28.30;99.90;;;;;;5078344;28;20222;-62
2022/06/02 12:32:29;;;;;;;5.22;2.85;;;28.20;99.90;;;;;;5085287;28;20187;-61
2022/06/02 12:35:21;;;;;;;5.50;3.05;;;28.20;99.90;;;;;;5010578;28;20243;-62
2022/06/02 12:38:21;;;;;;;5.07;2.90;;;28.20;99.90;;;;;;5070152;28;20211;-61
2022/06/02 12:41:17;;;;;;;6.10;3.30;;;28.20;99.90;;;;;;5070989;28;20199;-62
2022/06/02 12:44:29;;;;;;;5.28;3.17;;;28.30;99.90;;;;;;5082029;28;20214;-61
2022/06/02 12:47:30;;;;;;;6.65;3.10;;;28.40;99.90;;;;;;5078272;28;20223;-61
2022/06/02 12:50:32;;;;;;;5.38;3.40;;;28.50;99.90;;;;;;5009641;28;20630;-64
2022/06/02 12:53:34;;;;;;;4.50;2.80;;;28.50;99.90;;;;;;5064945;28;20211;-62
2022/06/02 12:56:16;;;;;;;4.70;3.20;;;28.60;99.90;;;;;;5070947;28;20545;-62
2022/06/02 12:59:18;;;;;;;4.80;3.40;;;28.60;99.90;;;;;;5083912;28;20240;-63
2022/06/02 13:01:51;;;;;;;6.15;3.22;;;28.60;99.90;;;;;;5089651;28;20321;-62
2022/06/02 13:04:52;;;;;;;5.40;3.28;;;28.70;99.90;;;;;;5091064;28;20229;-63
2022/06/02 13:07:52;;;;;;;7.13;3.60;;;28.70;99.90;;;;;;5091422;28;20238;-64
2022/06/02 13:10:42;;;;;;;5.45;3.25;;;28.70;99.90;;;;;;5076355;28;20208;-62
2022/06/02 13:13:48;;;;;;;3.75;2.78;;;28.80;99.90;;;;;;5069931;28;20240;-62
2022/06/02 13:16:51;;;;;;;4.85;3.00;;;28.70;99.90;;;;;;5070726;28;20207;-62
2022/06/02 13:19:42;;;;;;;4.68;3.15;;;28.70;99.90;;;;;;5048156;28;20580;-62
2022/06/02 13:22:40;;;;;;;7.93;3.40;;;28.70;99.90;;;;;;5071302;28;20224;-61
2022/06/02 13:25:44;;;;;;;4.03;3.17;;;28.70;99.90;;;;;;5074176;28;20279;-62
2022/06/02 13:28:58;;;;;;;4.90;3.85;;;28.70;99.90;;;;;;5091413;28;20698;-62
2022/06/02 13:31:58;;;;;;;4.28;3.58;;;28.70;99.90;;;;;;5082741;28;20578;-62
2022/06/02 13:35:04;;;;;;;5.07;3.63;;;28.80;99.90;;;;;;5074347;28;20196;-63
2022/06/02 13:38:00;;;;;;;5.65;3.35;;;28.80;99.90;;;;;;5080903;28;20267;-62
2022/06/02 13:40:35;;;;;;;9.35;3.33;;;28.80;99.90;;;;;;5094424;28;20554;-63
2022/06/02 13:43:39;;;;;;;3.88;3.15;;;28.80;99.90;;;;;;5093722;28;20545;-62
2022/06/02 13:46:48;;;;;;;3.97;2.83;;;28.70;99.90;;;;;;5094298;28;20203;-63
2022/06/02 13:50:03;;;;;;;4.72;3.00;;;28.80;99.90;;;;;;5073905;28;20195;-61
2022/06/02 13:53:11;;;;;;;10.73;4.00;;;28.80;99.90;;;;;;5053371;28;20204;-61
2022/06/02 13:59:16;;;;;;;7.03;4.57;;;28.90;99.90;;;;;;5104399;28;20566;-63
2022/06/02 14:02:05;;;;;;;8.88;3.05;;;28.90;99.90;;;;;;5105139;28;20688;-66
2022/06/02 14:04:52;;;;;;;5.47;3.10;;;29.00;99.90;;;;;;5037755;28;20204;-63
2022/06/02 14:07:46;;;;;;;4.35;3.10;;;29.00;99.90;;;;;;5073864;28;20218;-63
2022/06/02 14:10:31;;;;;;;5.95;2.83;;;28.90;99.90;;;;;;5073352;28;20203;-64
2022/06/02 14:13:13;;;;;;;3.00;2.63;;;28.90;99.90;;;;;;5072811;28;20608;-63
2022/06/02 14:15:59;;;;;;;9.75;2.92;;;28.90;99.90;;;;;;5073759;28;20535;-62
2022/06/02 14:18:45;;;;;;;5.72;4.30;;;28.90;99.90;;;;;;5073698;28;20185;-64
2022/06/02 14:21:20;;;;;;;3.65;3.05;;;29.00;99.90;;;;;;5073725;28;20193;-63
2022/06/02 14:24:00;;;;;;;3.35;2.60;;;28.90;99.90;;;;;;5073131;28;20199;-62
2022/06/02 14:26:34;;;;;;;4.32;2.90;;;28.80;99.90;;;;;;5073406;28;20192;-64
2022/06/02 14:29:19;;;;;;;4.75;2.88;;;28.80;99.90;;;;;;5073082;28;20211;-62